Alpena — WAV4647 — position and weather

sailwx.info

Track history (hours):
 
Tides and Currents Weather Stations Pressure Air Temp Water Temp Dewpoint Dewpoint Depression Visibility Wind Speed Wind Dir Waves Ship Positions

Alpena

Owner: INLAND LAKES MANAGEMENT, Muskegon, MI. More information available from US FCC via Universal Licensing System and Coast Guard Vessel Documentation Center.

Last reported at 2017-Dec-03 08:52 UTC. Time now 2017-Dec-11 17:21 UTC.
Position N 45°45' W 083°24'.
Warning: this ship's position is 8 days out of date.

Length 154 m; draft 7.3 m.

Type: Cargo ship. MMSI: 366893910.

Date/timePositionNaut miles runAvg speedWind from/ knotsBaromVisibWave heightAir tempDewpointWater temp
2017-Dec-03 08:52N 45°45' W 083°24'412.3
2017-Dec-03 08:30N 45°46' W 083°30'712.4
2017-Dec-03 07:54N 45°47' W 083°40'512.3
2017-Dec-03 07:30N 45°47' W 083°48'1512.3
2017-Dec-03 06:17N 45°49' W 084°09'312.2
2017-Dec-03 06:00N 45°50' W 084°14'612.2
2017-Dec-03 05:30N 45°50' W 084°22'612.2
2017-Dec-03 05:00N 45°51' W 084°31'612.0
2017-Dec-03 04:30N 45°50' W 084°40'612.3
2017-Dec-03 04:00N 45°49' W 084°48'612.5
2017-Dec-03 03:30N 45°50' W 084°57'612.2
2017-Dec-03 03:00N 45°51' W 085°06'612.2
2017-Dec-03 02:30N 45°52' W 085°15'612.2
2017-Dec-03 02:00N 45°52' W 085°23'612.2
2017-Dec-03 01:30N 45°53' W 085°32'611.6
2017-Dec-03 01:00N 45°52' W 085°40'612.4
2017-Dec-03 00:30N 45°49' W 085°48'612.3
2017-Dec-03 00:00N 45°46' W 085°55'612.4
2017-Dec-02 23:30N 45°43' W 086°03'30 0.7
2017-Dec-01 03:00N 45°24' W 086°36'6510.9 290 / 131018.6 5.4 4.0
2017-Nov-30 21:01N 45°52' W 085°12'011.1
2017-Nov-30 20:58N 45°52' W 085°11'510.9
2017-Nov-30 20:30N 45°51' W 085°04'510.8
2017-Nov-30 20:00N 45°50' W 084°56'510.4
2017-Nov-30 19:30N 45°50' W 084°49'510.1
2017-Nov-30 18:59N 45°48' W 084°41'1610.5
2017-Nov-30 17:30N 45°41' W 084°21'816.4
2017-Nov-30 17:00N 45°36' W 084°12'14 9.6 290 / 291006.810.8 5.0
2017-Nov-30 15:34N 45°33' W 083°53'211.8
2017-Nov-30 15:25N 45°32' W 083°51'511.7
2017-Nov-30 15:00N 45°30' W 083°45'711.7
2017-Nov-30 14:26N 45°27' W 083°36'511.8
2017-Nov-30 13:58N 45°25' W 083°29'  
Track history (hours):
 
Tides and Currents Weather Stations Pressure Air Temp Water Temp Dewpoint Dewpoint Depression Visibility Wind Speed Wind Dir Waves Ship Positions

Alpena

Owner: INLAND LAKES MANAGEMENT, Muskegon, MI. More information available from US FCC via Universal Licensing System and Coast Guard Vessel Documentation Center.

Last reported at 2017-Dec-03 08:52 UTC. Time now 2017-Dec-11 17:21 UTC.
Position N 45°45' W 083°24'.
Warning: this ship's position is 8 days out of date.

Length 154 m; draft 7.3 m.

Type: Cargo ship. MMSI: 366893910.

Date/timePositionNaut miles runAvg speedWind from/ knotsBaromVisibWave heightAir tempDewpointWater temp
2017-Dec-03 08:52N 45°45' W 083°24'412.3
2017-Dec-03 08:30N 45°46' W 083°30'712.4
2017-Dec-03 07:54N 45°47' W 083°40'512.3
2017-Dec-03 07:30N 45°47' W 083°48'1512.3
2017-Dec-03 06:17N 45°49' W 084°09'312.2
2017-Dec-03 06:00N 45°50' W 084°14'612.2
2017-Dec-03 05:30N 45°50' W 084°22'612.2
2017-Dec-03 05:00N 45°51' W 084°31'612.0
2017-Dec-03 04:30N 45°50' W 084°40'612.3
2017-Dec-03 04:00N 45°49' W 084°48'612.5
2017-Dec-03 03:30N 45°50' W 084°57'612.2
2017-Dec-03 03:00N 45°51' W 085°06'612.2
2017-Dec-03 02:30N 45°52' W 085°15'612.2
2017-Dec-03 02:00N 45°52' W 085°23'612.2
2017-Dec-03 01:30N 45°53' W 085°32'611.6
2017-Dec-03 01:00N 45°52' W 085°40'612.4
2017-Dec-03 00:30N 45°49' W 085°48'612.3
2017-Dec-03 00:00N 45°46' W 085°55'612.4
2017-Dec-02 23:30N 45°43' W 086°03'30 0.7
2017-Dec-01 03:00N 45°24' W 086°36'6510.9 290 / 131018.6 5.4 4.0
2017-Nov-30 21:01N 45°52' W 085°12'011.1
2017-Nov-30 20:58N 45°52' W 085°11'510.9
2017-Nov-30 20:30N 45°51' W 085°04'510.8
2017-Nov-30 20:00N 45°50' W 084°56'510.4
2017-Nov-30 19:30N 45°50' W 084°49'510.1
2017-Nov-30 18:59N 45°48' W 084°41'1610.5
2017-Nov-30 17:30N 45°41' W 084°21'816.4
2017-Nov-30 17:00N 45°36' W 084°12'14 9.6 290 / 291006.810.8 5.0
2017-Nov-30 15:34N 45°33' W 083°53'211.8
2017-Nov-30 15:25N 45°32' W 083°51'511.7
2017-Nov-30 15:00N 45°30' W 083°45'711.7
2017-Nov-30 14:26N 45°27' W 083°36'511.8
2017-Nov-30 13:58N 45°25' W 083°29'  

Dump ship's entire track history